createdAt,value
2017-06-11T00:01:10.995Z,14.30
2017-06-11T00:03:39.935Z,14.35
2017-06-11T00:06:08.085Z,14.75
2017-06-11T00:08:36.256Z,15.93
2017-06-11T00:11:05.200Z,15.95
2017-06-11T00:13:33.392Z,15.90
2017-06-11T00:16:01.546Z,17.10
2017-06-11T00:18:29.755Z,16.35
2017-06-11T00:20:57.914Z,17.40
2017-06-11T00:23:26.077Z,17.17
2017-06-11T00:25:54.316Z,17.48
2017-06-11T00:28:22.488Z,15.52
2017-06-11T00:30:50.657Z,17.50
2017-06-11T00:33:18.848Z,16.33
2017-06-11T00:35:46.994Z,16.10
2017-06-11T00:38:15.161Z,18.00
2017-06-11T00:40:43.374Z,15.40
2017-06-11T00:43:11.529Z,15.65
2017-06-11T00:45:39.704Z,15.40
2017-06-11T00:48:07.907Z,15.57
2017-06-11T00:50:36.072Z,16.75
2017-06-11T00:53:04.265Z,15.38
2017-06-11T00:55:32.464Z,15.45
2017-06-11T00:58:01.386Z,15.60
2017-06-11T01:00:29.533Z,14.73
2017-06-11T01:02:58.481Z,16.12
2017-06-11T01:05:26.652Z,14.90
2017-06-11T01:07:54.816Z,14.15
2017-06-11T01:10:23.028Z,13.02
2017-06-11T01:12:51.204Z,13.88
2017-06-11T01:15:19.380Z,13.45
2017-06-11T01:17:47.554Z,13.62
2017-06-11T01:20:15.752Z,13.80
2017-06-11T01:22:44.685Z,15.88
2017-06-11T01:25:12.901Z,13.45
2017-06-11T01:27:41.056Z,14.35
2017-06-11T01:30:09.246Z,13.95
2017-06-11T01:32:37.545Z,14.40
2017-06-11T01:35:06.492Z,14.10
2017-06-11T01:37:34.680Z,14.75
2017-06-11T01:40:02.894Z,13.27
2017-06-11T01:42:31.832Z,13.85
2017-06-11T01:45:00.005Z,14.35
2017-06-11T01:47:28.207Z,15.00
2017-06-11T01:49:56.379Z,14.25
2017-06-11T01:52:24.549Z,14.15
2017-06-11T01:54:52.740Z,15.05
2017-06-11T01:57:20.890Z,13.77
2017-06-11T01:59:49.039Z,15.40
2017-06-11T02:02:17.355Z,14.20
2017-06-11T02:04:45.510Z,14.07
2017-06-11T02:07:13.661Z,14.25
2017-06-11T02:09:41.854Z,13.52
2017-06-11T02:12:10.006Z,15.27
2017-06-11T02:14:38.178Z,14.02
2017-06-11T02:17:06.361Z,14.80
2017-06-11T02:19:34.510Z,13.93
2017-06-11T02:22:03.425Z,15.07
2017-06-11T02:24:31.611Z,13.85
2017-06-11T02:26:59.767Z,13.48
2017-06-11T02:29:27.955Z,13.85
2017-06-11T02:31:56.153Z,13.73
2017-06-11T02:34:24.329Z,13.90
2017-06-11T02:36:52.493Z,13.45
2017-06-11T02:39:20.701Z,13.85
2017-06-11T02:41:48.849Z,12.65
2017-06-11T02:44:17.010Z,13.23
2017-06-11T02:46:45.980Z,13.50
2017-06-11T02:49:14.149Z,14.18
2017-06-11T02:51:42.321Z,13.90
2017-06-11T02:54:10.502Z,12.63
2017-06-11T02:56:38.668Z,15.20
2017-06-11T02:59:06.822Z,14.00
2017-06-11T03:01:34.998Z,13.30
2017-06-11T03:04:03.161Z,14.23
2017-06-11T03:06:31.789Z,13.10
2017-06-11T03:08:59.989Z,12.90
2017-06-11T03:11:28.907Z,12.98
2017-06-11T03:13:57.080Z,13.43
2017-06-11T03:16:25.286Z,11.50
2017-06-11T03:18:53.452Z,11.60
2017-06-11T03:21:21.624Z,12.65
2017-06-11T03:23:49.817Z,12.00
2017-06-11T03:26:17.988Z,11.27
2017-06-11T03:28:46.157Z,11.40
2017-06-11T03:31:14.335Z,11.43
2017-06-11T03:33:42.486Z,11.63
2017-06-11T03:36:10.637Z,12.00
2017-06-11T03:38:38.835Z,11.27
2017-06-11T03:41:06.986Z,11.10
2017-06-11T03:43:35.146Z,11.23
2017-06-11T03:46:04.106Z,11.85
2017-06-11T03:48:32.249Z,12.13
2017-06-11T03:51:00.416Z,11.55
2017-06-11T03:53:28.610Z,11.73
2017-06-11T03:55:56.776Z,11.12
2017-06-11T03:58:24.922Z,10.80
2017-06-11T04:00:53.861Z,11.15
2017-06-11T04:03:22.030Z,10.75
2017-06-11T04:05:50.183Z,10.13
2017-06-11T04:08:18.358Z,10.40
2017-06-11T04:10:46.504Z,11.10
2017-06-11T04:13:15.441Z,11.27
2017-06-11T04:15:43.633Z,10.40
2017-06-11T04:18:11.804Z,11.10
2017-06-11T04:20:39.984Z,10.13
2017-06-11T04:23:08.189Z,10.77
2017-06-11T04:25:37.109Z,10.15
2017-06-11T04:28:05.262Z,10.38
2017-06-11T04:30:34.230Z,10.73
2017-06-11T04:33:02.406Z,9.90
2017-06-11T04:35:30.579Z,10.02
2017-06-11T04:37:58.757Z,10.15
2017-06-11T04:40:26.934Z,10.20
2017-06-11T04:42:55.101Z,9.30
2017-06-11T04:45:23.678Z,9.60
2017-06-11T04:47:51.851Z,9.25
2017-06-11T04:50:20.022Z,9.93
2017-06-11T04:52:48.213Z,8.85
2017-06-11T04:55:16.361Z,8.90
2017-06-11T04:57:44.505Z,9.00
2017-06-11T05:00:12.680Z,9.50
2017-06-11T05:02:40.843Z,9.02
2017-06-11T05:05:09.009Z,8.80
2017-06-11T05:07:37.966Z,8.70
2017-06-11T05:10:06.115Z,8.70
2017-06-11T05:12:34.282Z,8.75
2017-06-11T05:15:02.776Z,7.57
2017-06-11T05:17:30.940Z,8.95
2017-06-11T05:19:59.104Z,7.93
2017-06-11T05:22:27.279Z,8.43
2017-06-11T05:24:55.441Z,7.22
2017-06-11T05:27:23.603Z,7.87
2017-06-11T05:29:52.541Z,7.32
2017-06-11T05:32:20.694Z,7.80
2017-06-11T05:34:48.841Z,7.10
2017-06-11T05:37:17.913Z,7.20
2017-06-11T05:39:46.057Z,7.57
2017-06-11T05:42:14.335Z,6.70
2017-06-11T05:44:42.509Z,6.35
2017-06-11T05:47:10.659Z,6.43
2017-06-11T05:49:38.824Z,6.30
2017-06-11T05:52:07.022Z,6.00
2017-06-11T05:54:35.191Z,6.00
2017-06-11T05:57:03.352Z,5.40
2017-06-11T05:59:31.544Z,6.07
2017-06-11T06:01:59.686Z,5.65
2017-06-11T06:04:28.619Z,6.10
2017-06-11T06:06:56.792Z,5.32
2017-06-11T06:09:24.939Z,4.62
2017-06-11T06:11:53.101Z,4.68
2017-06-11T06:14:22.090Z,5.35
2017-06-11T06:16:51.016Z,4.68
2017-06-11T06:19:19.176Z,4.53
2017-06-11T06:21:47.360Z,4.37
2017-06-11T06:24:15.524Z,4.75
2017-06-11T06:26:43.673Z,5.40
2017-06-11T06:29:12.619Z,5.10
2017-06-11T06:31:40.780Z,4.60
2017-06-11T06:34:08.943Z,4.45
2017-06-11T06:36:37.133Z,4.90
2017-06-11T06:39:05.298Z,5.05
2017-06-11T06:41:33.456Z,4.68
2017-06-11T06:44:01.640Z,4.10
2017-06-11T06:46:29.790Z,4.50
2017-06-11T06:48:58.790Z,4.60
2017-06-11T06:51:27.756Z,4.05
2017-06-11T06:53:55.913Z,4.07
2017-06-11T06:56:24.098Z,4.55
2017-06-11T06:58:52.293Z,4.12
2017-06-11T07:01:20.465Z,4.55
2017-06-11T07:03:48.629Z,4.40
2017-06-11T07:06:16.810Z,4.20
2017-06-11T07:08:44.965Z,4.18
2017-06-11T07:11:13.147Z,3.90
2017-06-11T07:13:41.322Z,3.62
2017-06-11T07:16:09.485Z,3.80
2017-06-11T07:18:37.653Z,3.90
2017-06-11T07:21:05.825Z,3.65
2017-06-11T07:23:37.982Z,4.70
2017-06-11T07:26:06.202Z,4.20
2017-06-11T07:28:34.373Z,4.25
2017-06-11T07:31:02.513Z,3.80
2017-06-11T07:33:30.685Z,3.78
2017-06-11T07:35:59.649Z,3.35
2017-06-11T07:38:27.797Z,3.53
2017-06-11T07:40:55.949Z,3.30
2017-06-11T07:43:24.153Z,3.72
2017-06-11T07:45:52.299Z,3.22
2017-06-11T07:48:20.460Z,3.87
2017-06-11T07:50:48.656Z,3.15
2017-06-11T07:53:16.801Z,3.12
2017-06-11T07:55:45.737Z,4.25
2017-06-11T07:58:13.924Z,3.95
2017-06-11T08:00:42.065Z,3.50
2017-06-11T08:03:10.237Z,3.62
2017-06-11T08:05:38.437Z,3.50
2017-06-11T08:08:06.594Z,5.40
2017-06-11T08:10:34.739Z,3.90
2017-06-11T08:13:02.916Z,3.03
2017-06-11T08:15:31.084Z,3.10
2017-06-11T08:17:59.229Z,3.30
2017-06-11T08:20:27.401Z,3.90
2017-06-11T08:22:55.558Z,3.80
2017-06-11T08:25:23.706Z,3.90
2017-06-11T08:27:51.882Z,4.43
2017-06-11T08:30:20.031Z,4.10
2017-06-11T08:32:48.967Z,3.90
2017-06-11T08:35:17.142Z,4.00
2017-06-11T08:37:45.285Z,3.83
2017-06-11T08:40:13.449Z,3.57
2017-06-11T08:42:42.391Z,3.40
2017-06-11T08:45:10.554Z,4.70
2017-06-11T08:47:38.716Z,3.83
2017-06-11T08:50:06.905Z,4.20
2017-06-11T08:52:35.069Z,2.70
2017-06-11T08:55:03.205Z,4.60
2017-06-11T08:57:32.169Z,2.97
2017-06-11T09:00:00.336Z,3.60
2017-06-11T09:02:28.483Z,3.03
2017-06-11T09:04:56.659Z,2.90
2017-06-11T09:07:24.816Z,2.90
2017-06-11T09:09:52.960Z,3.50
2017-06-11T09:12:21.924Z,3.23
2017-06-11T09:14:50.065Z,3.63
2017-06-11T09:17:18.235Z,2.70
2017-06-11T09:19:46.426Z,3.97
2017-06-11T09:22:14.566Z,3.60
2017-06-11T09:24:43.470Z,4.93
2017-06-11T09:27:11.646Z,3.13
2017-06-11T09:29:39.816Z,3.40
2017-06-11T09:32:07.980Z,3.67
2017-06-11T09:34:36.921Z,4.73
2017-06-11T09:37:05.063Z,3.47
2017-06-11T09:39:33.224Z,3.27
2017-06-11T09:42:02.157Z,3.97
2017-06-11T09:44:30.299Z,3.00
2017-06-11T09:46:58.449Z,3.30
2017-06-11T09:49:27.412Z,3.60
2017-06-11T09:51:55.558Z,3.13
2017-06-11T09:54:23.727Z,3.63
2017-06-11T09:56:51.917Z,3.13
2017-06-11T09:59:20.084Z,3.17
2017-06-11T10:01:48.254Z,3.10
2017-06-11T10:04:17.193Z,3.07
2017-06-11T10:06:45.354Z,3.00
2017-06-11T10:09:13.499Z,4.13
2017-06-11T10:11:41.700Z,2.90
2017-06-11T10:14:09.865Z,2.63
2017-06-11T10:16:38.028Z,2.83
2017-06-11T10:19:06.236Z,3.53
2017-06-11T10:21:34.404Z,3.00
2017-06-11T10:24:02.572Z,3.13
2017-06-11T10:26:30.768Z,2.83
2017-06-11T10:28:58.951Z,2.43
2017-06-11T10:31:27.117Z,3.57
2017-06-11T10:33:55.327Z,3.80
2017-06-11T10:36:24.252Z,2.60
2017-06-11T10:38:52.418Z,3.12
2017-06-11T10:41:20.595Z,2.90
2017-06-11T10:43:48.800Z,4.63
2017-06-11T10:46:16.960Z,3.07
2017-06-11T10:48:45.171Z,3.00
2017-06-11T10:51:13.892Z,2.40
2017-06-11T10:53:42.055Z,3.10
2017-06-11T10:56:10.250Z,2.60
2017-06-11T10:58:38.390Z,2.93
2017-06-11T11:01:06.557Z,2.50
2017-06-11T11:03:34.749Z,3.00
2017-06-11T11:06:02.913Z,2.53
2017-06-11T11:08:31.079Z,2.83
2017-06-11T11:10:59.266Z,2.83
2017-06-11T11:13:27.505Z,2.67
2017-06-11T11:15:55.645Z,3.07
2017-06-11T11:18:23.820Z,2.60
2017-06-11T11:20:51.961Z,2.60
2017-06-11T11:23:20.156Z,2.80
2017-06-11T11:25:48.345Z,2.83
2017-06-11T11:28:16.486Z,3.67
2017-06-11T11:30:44.630Z,6.10
2017-06-11T11:33:12.813Z,4.70
2017-06-11T11:35:40.969Z,3.23
2017-06-11T11:38:09.137Z,3.27
2017-06-11T11:40:37.347Z,3.10
2017-06-11T11:43:05.517Z,3.30
2017-06-11T11:45:33.658Z,3.30
2017-06-11T11:48:01.859Z,3.03
2017-06-11T11:50:30.023Z,3.77
2017-06-11T11:52:58.224Z,3.53
2017-06-11T11:55:26.420Z,3.27
2017-06-11T11:57:54.581Z,3.80
2017-06-11T12:00:22.720Z,3.77
2017-06-11T12:02:50.898Z,2.90
2017-06-11T12:05:19.060Z,2.90
2017-06-11T12:07:47.231Z,5.60
2017-06-11T12:10:15.421Z,4.20
2017-06-11T12:12:43.565Z,5.50
2017-06-11T12:15:11.714Z,4.17
2017-06-11T12:17:39.905Z,3.60
2017-06-11T12:20:08.073Z,3.50
2017-06-11T12:22:36.223Z,3.83
2017-06-11T12:25:04.405Z,3.30
2017-06-11T12:27:32.555Z,3.30
2017-06-11T12:30:00.731Z,3.50
2017-06-11T12:32:28.932Z,3.60
2017-06-11T12:34:57.099Z,3.53
2017-06-11T12:37:25.251Z,3.30
2017-06-11T12:39:53.449Z,3.30
2017-06-11T12:42:21.609Z,3.40
2017-06-11T12:44:49.772Z,3.33
2017-06-11T12:47:17.960Z,3.70
2017-06-11T12:49:46.151Z,3.00
2017-06-11T12:52:14.303Z,3.30
2017-06-11T12:54:42.488Z,3.03
2017-06-11T12:57:10.669Z,3.40
2017-06-11T12:59:38.810Z,2.93
2017-06-11T13:02:07.005Z,3.80
2017-06-11T13:04:35.167Z,3.50
2017-06-11T13:07:03.902Z,3.53
2017-06-11T13:09:32.861Z,3.67
2017-06-11T13:12:01.035Z,3.53
2017-06-11T13:14:29.182Z,3.33
2017-06-11T13:16:57.385Z,3.40
2017-06-11T13:19:25.553Z,3.10
2017-06-11T13:21:53.712Z,3.73
2017-06-11T13:24:21.885Z,3.30
2017-06-11T13:26:50.049Z,3.30
2017-06-11T13:29:18.200Z,3.80
2017-06-11T13:31:47.253Z,3.43
2017-06-11T13:34:15.424Z,4.30
2017-06-11T13:36:43.569Z,3.93
2017-06-11T13:39:11.754Z,4.10
2017-06-11T13:41:39.912Z,3.60
2017-06-11T13:44:08.075Z,3.40
2017-06-11T13:46:37.039Z,3.03
2017-06-11T13:49:05.205Z,3.10
2017-06-11T13:51:33.348Z,3.87
2017-06-11T13:54:01.665Z,3.17
2017-06-11T13:56:29.839Z,3.13
2017-06-11T13:58:57.987Z,3.07
2017-06-11T14:01:26.175Z,3.37
2017-06-11T14:03:54.322Z,2.60
2017-06-11T14:06:22.516Z,2.90
2017-06-11T14:08:51.102Z,3.20
2017-06-11T14:11:19.246Z,3.70
2017-06-11T14:13:47.397Z,3.80
2017-06-11T14:16:16.385Z,3.67
2017-06-11T14:18:45.317Z,3.67
2017-06-11T14:21:13.486Z,3.67
2017-06-11T14:23:41.661Z,3.43
2017-06-11T14:26:09.823Z,3.50
2017-06-11T14:28:37.990Z,3.20
2017-06-11T14:31:06.166Z,3.53
2017-06-11T14:33:34.343Z,3.73
2017-06-11T14:36:02.486Z,3.40
2017-06-11T14:38:30.689Z,3.73
2017-06-11T14:40:58.834Z,2.93
2017-06-11T14:43:26.977Z,4.00
2017-06-11T14:45:55.192Z,3.27
2017-06-11T14:48:23.360Z,3.57
2017-06-11T14:50:51.526Z,3.70
2017-06-11T14:53:19.764Z,3.07
2017-06-11T14:55:47.922Z,3.50
2017-06-11T14:58:16.092Z,3.20
2017-06-11T15:00:44.302Z,3.70
2017-06-11T15:03:12.453Z,3.43
2017-06-11T15:05:40.610Z,3.20
2017-06-11T15:08:08.797Z,3.03
2017-06-11T15:10:36.949Z,3.50
2017-06-11T15:13:05.885Z,2.83
2017-06-11T15:15:34.085Z,3.37
2017-06-11T15:18:02.242Z,4.53
2017-06-11T15:20:30.420Z,3.97
2017-06-11T15:22:58.821Z,3.00
2017-06-11T15:25:27.001Z,3.53
2017-06-11T15:27:55.180Z,4.43
2017-06-11T15:30:23.410Z,3.55
2017-06-11T15:32:51.569Z,3.30
2017-06-11T15:35:19.736Z,3.70
2017-06-11T15:37:47.938Z,3.53
2017-06-11T15:40:16.094Z,4.20
2017-06-11T15:42:44.292Z,3.90
2017-06-11T15:45:12.496Z,4.55
2017-06-11T15:47:40.717Z,4.37
2017-06-11T15:50:08.889Z,4.25
2017-06-11T15:52:37.065Z,4.70
2017-06-11T15:55:05.235Z,4.50
2017-06-11T15:57:33.386Z,4.87
2017-06-11T16:00:02.353Z,5.12
2017-06-11T16:02:30.520Z,6.18
2017-06-11T16:04:58.690Z,5.75
2017-06-11T16:07:26.880Z,7.05
2017-06-11T16:09:55.045Z,6.45
2017-06-11T16:12:23.190Z,5.72
2017-06-11T16:14:51.385Z,5.47
2017-06-11T16:17:19.529Z,5.35
2017-06-11T16:19:47.696Z,5.30
2017-06-11T16:22:15.899Z,4.60
2017-06-11T16:24:44.067Z,5.10
2017-06-11T16:27:12.243Z,8.00
2017-06-11T16:29:40.444Z,6.15
2017-06-11T16:32:08.607Z,4.75
2017-06-11T16:34:36.763Z,5.05
2017-06-11T16:37:04.939Z,4.97
2017-06-11T16:39:33.081Z,5.93
2017-06-11T16:42:01.990Z,5.57
2017-06-11T16:44:30.165Z,5.70
2017-06-11T16:46:58.333Z,4.95
2017-06-11T16:49:26.499Z,5.20
2017-06-11T16:51:55.442Z,5.43
2017-06-11T16:54:23.608Z,5.05
2017-06-11T16:56:51.778Z,5.12
2017-06-11T16:59:19.972Z,4.93
2017-06-11T17:01:48.116Z,4.43
2017-06-11T17:04:16.302Z,4.28
2017-06-11T17:06:44.531Z,4.57
2017-06-11T17:09:13.507Z,5.60
2017-06-11T17:11:41.658Z,4.87
2017-06-11T17:14:09.833Z,5.45
2017-06-11T17:16:38.004Z,4.35
2017-06-11T17:19:06.160Z,4.90
2017-06-11T17:21:34.348Z,4.97
2017-06-11T17:24:02.498Z,6.15
2017-06-11T17:26:30.642Z,5.97
2017-06-11T17:28:59.639Z,6.62
2017-06-11T17:31:27.797Z,5.90
2017-06-11T17:33:55.959Z,7.68
2017-06-11T17:36:24.207Z,6.55
2017-06-11T17:38:52.398Z,6.68
2017-06-11T17:41:20.547Z,6.57
2017-06-11T17:43:48.722Z,7.57
2017-06-11T17:46:16.897Z,7.32
2017-06-11T17:48:45.041Z,7.80
2017-06-11T17:51:14.013Z,7.97
2017-06-11T17:53:43.153Z,8.90
2017-06-11T17:56:11.321Z,7.55
2017-06-11T17:58:39.522Z,7.25
2017-06-11T18:01:07.803Z,9.13
2017-06-11T18:03:35.976Z,8.23
2017-06-11T18:06:04.181Z,9.82
2017-06-11T18:08:32.349Z,7.62
2017-06-11T18:11:00.525Z,7.72
2017-06-11T18:13:28.728Z,8.43
2017-06-11T18:15:56.891Z,7.22
2017-06-11T18:18:25.039Z,8.25
2017-06-11T18:20:53.233Z,7.35
2017-06-11T18:23:21.419Z,6.35
2017-06-11T18:25:49.611Z,5.60
2017-06-11T18:28:17.843Z,6.18
2017-06-11T18:30:46.009Z,5.40
2017-06-11T18:33:14.936Z,6.10
2017-06-11T18:35:43.153Z,5.78
2017-06-11T18:38:11.305Z,6.20
2017-06-11T18:40:39.467Z,7.22
2017-06-11T18:43:07.669Z,6.70
2017-06-11T18:45:35.929Z,6.65
2017-06-11T18:48:04.125Z,6.90
2017-06-11T18:50:32.318Z,7.53
2017-06-11T18:53:00.493Z,6.93
2017-06-11T18:55:28.641Z,7.40
2017-06-11T18:57:56.818Z,7.53
2017-06-11T19:00:24.985Z,7.60
2017-06-11T19:02:53.166Z,8.13
2017-06-11T19:05:21.430Z,6.82
2017-06-11T19:07:49.577Z,6.55
2017-06-11T19:10:17.741Z,5.80
2017-06-11T19:12:46.709Z,5.15
2017-06-11T19:15:14.896Z,5.60
2017-06-11T19:17:43.814Z,5.32
2017-06-11T19:20:12.025Z,5.68
2017-06-11T19:22:40.193Z,5.05
2017-06-11T19:25:08.361Z,4.80
2017-06-11T19:27:36.536Z,5.12
2017-06-11T19:30:04.682Z,9.80
2017-06-11T19:32:32.849Z,5.95
2017-06-11T19:35:02.896Z,10.48
2017-06-11T19:37:33.131Z,10.63
2017-06-11T19:40:04.211Z,10.05
2017-06-11T19:42:32.489Z,8.02
2017-06-11T19:45:00.653Z,7.30
2017-06-11T19:47:28.829Z,6.78
2017-06-11T19:49:56.970Z,6.93
2017-06-11T19:52:25.897Z,7.00
2017-06-11T19:54:54.093Z,6.47
2017-06-11T19:57:22.243Z,7.90
2017-06-11T19:59:50.387Z,7.55
2017-06-11T20:02:19.345Z,7.97
2017-06-11T20:04:47.490Z,7.18
2017-06-11T20:07:15.633Z,6.80
2017-06-11T20:09:44.591Z,7.53
2017-06-11T20:12:12.751Z,7.32
2017-06-11T20:14:40.919Z,6.62
2017-06-11T20:17:09.104Z,7.15
2017-06-11T20:19:37.269Z,7.20
2017-06-11T20:22:05.436Z,8.00
2017-06-11T20:24:33.672Z,7.82
2017-06-11T20:27:02.633Z,7.20
2017-06-11T20:29:30.792Z,7.15
2017-06-11T20:31:59.037Z,8.40
2017-06-11T20:34:27.182Z,8.77
2017-06-11T20:36:55.329Z,8.43
2017-06-11T20:39:23.505Z,8.27
2017-06-11T20:41:51.705Z,9.20
2017-06-11T20:44:20.643Z,8.35
2017-06-11T20:46:48.908Z,8.82
2017-06-11T20:49:17.057Z,9.80
2017-06-11T20:51:46.018Z,9.50
2017-06-11T20:54:14.192Z,8.73
2017-06-11T20:56:42.381Z,9.52
2017-06-11T20:59:10.530Z,9.25
2017-06-11T21:01:38.728Z,10.15
2017-06-11T21:04:06.885Z,9.80
2017-06-11T21:06:35.062Z,10.48
2017-06-11T21:09:03.256Z,10.00
2017-06-11T21:11:31.401Z,9.32
2017-06-11T21:13:59.550Z,9.70
2017-06-11T21:16:27.725Z,10.02
2017-06-11T21:18:55.873Z,10.20
2017-06-11T21:21:24.808Z,9.48
2017-06-11T21:23:53.005Z,10.35
2017-06-11T21:26:21.175Z,9.15
2017-06-11T21:28:49.348Z,9.50
2017-06-11T21:31:17.530Z,10.25
2017-06-11T21:33:45.708Z,10.43
2017-06-11T21:36:13.878Z,9.52
2017-06-11T21:38:42.104Z,9.27
2017-06-11T21:41:10.260Z,8.75
2017-06-11T21:43:39.188Z,9.15
2017-06-11T21:46:07.374Z,8.35
2017-06-11T21:48:35.536Z,9.20
2017-06-11T21:51:03.678Z,8.88
2017-06-11T21:53:32.662Z,8.23
2017-06-11T21:56:01.572Z,9.13
2017-06-11T21:58:29.736Z,8.75
2017-06-11T22:00:58.683Z,8.68
2017-06-11T22:03:26.826Z,7.35
2017-06-11T22:05:54.987Z,7.85
2017-06-11T22:08:23.929Z,7.20
2017-06-11T22:10:52.086Z,8.45
2017-06-11T22:13:20.244Z,8.35
2017-06-11T22:15:48.442Z,7.40
2017-06-11T22:18:16.604Z,8.25
2017-06-11T22:20:44.745Z,8.32
2017-06-11T22:23:13.709Z,8.27
2017-06-11T22:25:41.855Z,7.70
2017-06-11T22:28:10.002Z,8.07
2017-06-11T22:30:38.192Z,7.75
2017-06-11T22:33:06.360Z,8.18
2017-06-11T22:35:34.520Z,7.72
2017-06-11T22:38:02.689Z,7.78
2017-06-11T22:40:31.597Z,8.18
2017-06-11T22:42:59.759Z,8.60
2017-06-11T22:45:27.934Z,7.40
2017-06-11T22:47:56.081Z,8.00
2017-06-11T22:50:24.244Z,8.13
2017-06-11T22:52:52.436Z,8.60
2017-06-11T22:55:21.131Z,8.70
2017-06-11T22:57:50.057Z,8.80
2017-06-11T23:00:18.235Z,7.80
2017-06-11T23:02:46.401Z,9.25
2017-06-11T23:05:14.565Z,9.05
2017-06-11T23:07:42.749Z,9.57
2017-06-11T23:10:10.894Z,9.75
2017-06-11T23:12:39.806Z,10.30
2017-06-11T23:15:08.009Z,9.63
2017-06-11T23:17:36.168Z,9.63
2017-06-11T23:20:04.309Z,9.13
2017-06-11T23:22:32.486Z,10.00
2017-06-11T23:25:01.425Z,9.60
2017-06-11T23:27:29.569Z,10.95
2017-06-11T23:29:57.746Z,10.73
2017-06-11T23:32:25.898Z,10.55
2017-06-11T23:34:54.837Z,10.32
2017-06-11T23:37:23.020Z,11.40
2017-06-11T23:39:51.170Z,10.65
2017-06-11T23:42:19.343Z,12.63
2017-06-11T23:44:47.541Z,12.07
2017-06-11T23:47:15.709Z,12.13
2017-06-11T23:49:43.879Z,11.70
2017-06-11T23:52:12.070Z,11.35
2017-06-11T23:54:40.243Z,13.27
2017-06-11T23:57:08.401Z,12.70
2017-06-11T23:59:36.600Z,12.60
